sensor_id;sensor_type;location;lat;lon;timestamp;pressure;altitude;pressure_sealevel;temperature;humidity
68380;BME280;57711;53.196;19.638;2023-05-08T00:01:57;101516.08;;;8.72;39.95
68380;BME280;57711;53.196;19.638;2023-05-08T00:04:24;101519.38;;;8.71;39.92
68380;BME280;57711;53.196;19.638;2023-05-08T00:06:51;101521.54;;;8.65;39.86
68380;BME280;57711;53.196;19.638;2023-05-08T00:09:19;101520.21;;;8.63;39.89
68380;BME280;57711;53.196;19.638;2023-05-08T00:11:46;101523.85;;;8.56;39.77
68380;BME280;57711;53.196;19.638;2023-05-08T00:14:13;101521.70;;;8.50;40.08
68380;BME280;57711;53.196;19.638;2023-05-08T00:16:41;101521.27;;;8.51;40.04
68380;BME280;57711;53.196;19.638;2023-05-08T00:19:08;101521.55;;;8.53;40.08
68380;BME280;57711;53.196;19.638;2023-05-08T00:21:35;101523.33;;;8.53;40.16
68380;BME280;57711;53.196;19.638;2023-05-08T00:24:02;101525.05;;;8.54;40.13
68380;BME280;57711;53.196;19.638;2023-05-08T00:26:29;101530.03;;;8.56;40.29
68380;BME280;57711;53.196;19.638;2023-05-08T00:28:57;101528.78;;;8.55;40.21
68380;BME280;57711;53.196;19.638;2023-05-08T00:31:24;101528.73;;;8.57;40.24
68380;BME280;57711;53.196;19.638;2023-05-08T00:33:51;101530.91;;;8.56;40.45
68380;BME280;57711;53.196;19.638;2023-05-08T00:36:18;101527.48;;;8.56;40.16
68380;BME280;57711;53.196;19.638;2023-05-08T00:38:45;101531.20;;;8.54;40.31
68380;BME280;57711;53.196;19.638;2023-05-08T00:41:13;101532.05;;;8.52;40.27
68380;BME280;57711;53.196;19.638;2023-05-08T00:43:40;101532.44;;;8.51;40.39
68380;BME280;57711;53.196;19.638;2023-05-08T00:46:08;101532.81;;;8.48;40.48
68380;BME280;57711;53.196;19.638;2023-05-08T00:48:36;101532.89;;;8.47;40.50
68380;BME280;57711;53.196;19.638;2023-05-08T00:51:06;101531.98;;;8.47;40.55
68380;BME280;57711;53.196;19.638;2023-05-08T00:53:38;101534.61;;;8.45;40.48
68380;BME280;57711;53.196;19.638;2023-05-08T00:56:09;101534.13;;;8.44;40.56
68380;BME280;57711;53.196;19.638;2023-05-08T00:58:37;101535.54;;;8.42;40.51
68380;BME280;57711;53.196;19.638;2023-05-08T01:01:04;101538.47;;;8.40;40.78
68380;BME280;57711;53.196;19.638;2023-05-08T01:03:34;101538.55;;;8.39;40.72
68380;BME280;57711;53.196;19.638;2023-05-08T01:06:03;101541.88;;;8.38;40.77
68380;BME280;57711;53.196;19.638;2023-05-08T01:08:31;101542.10;;;8.37;40.74
68380;BME280;57711;53.196;19.638;2023-05-08T01:13:57;101543.20;;;8.34;40.81
68380;BME280;57711;53.196;19.638;2023-05-08T01:16:45;101542.79;;;8.31;40.92
68380;BME280;57711;53.196;19.638;2023-05-08T01:32:40;101556.25;;;8.17;41.14
68380;BME280;57711;53.196;19.638;2023-05-08T01:35:26;101554.32;;;8.10;41.09
68380;BME280;57711;53.196;19.638;2023-05-08T01:38:17;101557.11;;;8.05;41.12
68380;BME280;57711;53.196;19.638;2023-05-08T01:41:04;101561.67;;;8.04;41.04
68380;BME280;57711;53.196;19.638;2023-05-08T01:44:01;101563.63;;;8.02;41.11
68380;BME280;57711;53.196;19.638;2023-05-08T01:46:31;101567.55;;;7.99;41.20
68380;BME280;57711;53.196;19.638;2023-05-08T01:49:06;101572.90;;;7.94;41.22
68380;BME280;57711;53.196;19.638;2023-05-08T01:51:44;101566.63;;;7.84;41.22
68380;BME280;57711;53.196;19.638;2023-05-08T01:54:15;101570.90;;;7.81;41.40
68380;BME280;57711;53.196;19.638;2023-05-08T01:56:47;101567.79;;;7.82;41.45
68380;BME280;57711;53.196;19.638;2023-05-08T01:59:17;101570.79;;;7.83;41.48
68380;BME280;57711;53.196;19.638;2023-05-08T02:01:48;101571.67;;;7.83;41.51
68380;BME280;57711;53.196;19.638;2023-05-08T02:04:17;101573.95;;;7.78;41.33
68380;BME280;57711;53.196;19.638;2023-05-08T02:06:45;101570.47;;;7.70;41.35
68380;BME280;57711;53.196;19.638;2023-05-08T02:09:13;101573.23;;;7.62;41.45
68380;BME280;57711;53.196;19.638;2023-05-08T02:11:42;101577.27;;;7.58;41.67
68380;BME280;57711;53.196;19.638;2023-05-08T02:14:11;101578.71;;;7.58;41.56
68380;BME280;57711;53.196;19.638;2023-05-08T02:16:40;101579.11;;;7.60;41.71
68380;BME280;57711;53.196;19.638;2023-05-08T02:19:09;101578.91;;;7.64;41.74
68380;BME280;57711;53.196;19.638;2023-05-08T02:21:38;101580.74;;;7.66;41.64
68380;BME280;57711;53.196;19.638;2023-05-08T02:24:07;101583.06;;;7.67;41.69
68380;BME280;57711;53.196;19.638;2023-05-08T02:26:35;101584.09;;;7.64;41.73
68380;BME280;57711;53.196;19.638;2023-05-08T02:29:04;101585.45;;;7.66;41.75
68380;BME280;57711;53.196;19.638;2023-05-08T02:31:32;101586.16;;;7.66;41.79
68380;BME280;57711;53.196;19.638;2023-05-08T02:34:01;101585.47;;;7.66;41.66
68380;BME280;57711;53.196;19.638;2023-05-08T02:36:30;101589.45;;;7.65;41.83
68380;BME280;57711;53.196;19.638;2023-05-08T02:38:58;101595.36;;;7.66;41.80
68380;BME280;57711;53.196;19.638;2023-05-08T02:41:29;101594.66;;;7.65;41.94
68380;BME280;57711;53.196;19.638;2023-05-08T02:43:58;101595.61;;;7.61;41.84
68380;BME280;57711;53.196;19.638;2023-05-08T02:47:04;101594.76;;;7.60;41.91
68380;BME280;57711;53.196;19.638;2023-05-08T02:49:59;101594.09;;;7.60;41.94
68380;BME280;57711;53.196;19.638;2023-05-08T02:52:37;101594.14;;;7.58;41.97
68380;BME280;57711;53.196;19.638;2023-05-08T02:58:28;101596.86;;;7.58;41.96
68380;BME280;57711;53.196;19.638;2023-05-08T03:01:13;101600.25;;;7.55;42.13
68380;BME280;57711;53.196;19.638;2023-05-08T03:03:44;101601.21;;;7.54;42.05
68380;BME280;57711;53.196;19.638;2023-05-08T03:06:17;101603.39;;;7.50;42.03
68380;BME280;57711;53.196;19.638;2023-05-08T03:08:45;101602.68;;;7.47;42.13
68380;BME280;57711;53.196;19.638;2023-05-08T03:11:17;101604.85;;;7.44;42.13
68380;BME280;57711;53.196;19.638;2023-05-08T03:13:46;101606.52;;;7.40;42.13
68380;BME280;57711;53.196;19.638;2023-05-08T03:16:19;101602.05;;;7.39;42.30
68380;BME280;57711;53.196;19.638;2023-05-08T03:18:52;101604.77;;;7.38;42.18
68380;BME280;57711;53.196;19.638;2023-05-08T03:21:21;101604.69;;;7.37;42.26
68380;BME280;57711;53.196;19.638;2023-05-08T03:23:51;101605.85;;;7.38;42.22
68380;BME280;57711;53.196;19.638;2023-05-08T03:26:19;101613.52;;;7.40;42.36
68380;BME280;57711;53.196;19.638;2023-05-08T03:28:47;101617.22;;;7.35;42.21
68380;BME280;57711;53.196;19.638;2023-05-08T03:31:17;101616.30;;;7.28;42.20
68380;BME280;57711;53.196;19.638;2023-05-08T03:33:49;101619.61;;;7.24;42.42
68380;BME280;57711;53.196;19.638;2023-05-08T03:36:18;101623.08;;;7.19;42.40
68380;BME280;57711;53.196;19.638;2023-05-08T03:38:46;101625.95;;;7.15;42.37
68380;BME280;57711;53.196;19.638;2023-05-08T03:41:13;101626.14;;;7.15;42.48
68380;BME280;57711;53.196;19.638;2023-05-08T03:43:42;101625.30;;;7.14;42.47
68380;BME280;57711;53.196;19.638;2023-05-08T03:46:10;101624.56;;;7.08;42.51
68380;BME280;57711;53.196;19.638;2023-05-08T03:48:38;101620.16;;;7.03;42.53
68380;BME280;57711;53.196;19.638;2023-05-08T03:51:07;101618.40;;;7.06;42.79
68380;BME280;57711;53.196;19.638;2023-05-08T03:53:36;101611.90;;;7.13;42.90
68380;BME280;57711;53.196;19.638;2023-05-08T03:56:04;101617.09;;;7.20;42.91
68380;BME280;57711;53.196;19.638;2023-05-08T04:01:37;101621.04;;;7.30;43.06
68380;BME280;57711;53.196;19.638;2023-05-08T04:04:37;101620.45;;;7.34;43.08
68380;BME280;57711;53.196;19.638;2023-05-08T04:07:25;101619.39;;;7.37;43.18
68380;BME280;57711;53.196;19.638;2023-05-08T04:10:06;101617.95;;;7.41;43.23
68380;BME280;57711;53.196;19.638;2023-05-08T04:12:41;101623.70;;;7.44;43.28
68380;BME280;57711;53.196;19.638;2023-05-08T04:15:16;101621.73;;;7.48;43.25
68380;BME280;57711;53.196;19.638;2023-05-08T04:17:48;101624.23;;;7.51;43.42
68380;BME280;57711;53.196;19.638;2023-05-08T04:20:19;101626.77;;;7.58;43.51
68380;BME280;57711;53.196;19.638;2023-05-08T04:22:49;101628.38;;;7.61;43.48
68380;BME280;57711;53.196;19.638;2023-05-08T04:25:19;101629.60;;;7.65;43.64
68380;BME280;57711;53.196;19.638;2023-05-08T04:27:48;101629.73;;;7.69;43.58
68380;BME280;57711;53.196;19.638;2023-05-08T04:30:18;101634.33;;;7.74;43.65
68380;BME280;57711;53.196;19.638;2023-05-08T04:32:46;101634.09;;;7.79;43.73
68380;BME280;57711;53.196;19.638;2023-05-08T04:35:14;101639.38;;;7.80;43.64
68380;BME280;57711;53.196;19.638;2023-05-08T04:37:42;101638.71;;;7.83;43.73
68380;BME280;57711;53.196;19.638;2023-05-08T04:40:10;101646.08;;;7.83;43.76
68380;BME280;57711;53.196;19.638;2023-05-08T04:42:38;101645.70;;;7.86;43.71
68380;BME280;57711;53.196;19.638;2023-05-08T04:45:09;101644.64;;;7.92;43.96
68380;BME280;57711;53.196;19.638;2023-05-08T04:47:36;101647.53;;;7.99;44.01
68380;BME280;57711;53.196;19.638;2023-05-08T04:50:04;101650.70;;;8.03;44.08
68380;BME280;57711;53.196;19.638;2023-05-08T04:52:33;101655.22;;;8.09;44.07
68380;BME280;57711;53.196;19.638;2023-05-08T04:55:00;101657.30;;;8.14;44.21
68380;BME280;57711;53.196;19.638;2023-05-08T04:57:28;101660.80;;;8.19;44.15
68380;BME280;57711;53.196;19.638;2023-05-08T04:59:55;101664.96;;;8.25;44.28
68380;BME280;57711;53.196;19.638;2023-05-08T05:02:24;101663.82;;;8.29;44.24
68380;BME280;57711;53.196;19.638;2023-05-08T05:04:52;101662.34;;;8.34;44.37
68380;BME280;57711;53.196;19.638;2023-05-08T05:07:19;101666.05;;;8.38;44.39
68380;BME280;57711;53.196;19.638;2023-05-08T05:09:46;101666.95;;;8.41;44.44
68380;BME280;57711;53.196;19.638;2023-05-08T05:12:13;101665.23;;;8.46;44.46
68380;BME280;57711;53.196;19.638;2023-05-08T05:14:40;101668.84;;;8.53;44.50
68380;BME280;57711;53.196;19.638;2023-05-08T05:17:08;101665.96;;;8.59;44.40
68380;BME280;57711;53.196;19.638;2023-05-08T05:19:35;101665.17;;;8.66;44.51
68380;BME280;57711;53.196;19.638;2023-05-08T05:22:02;101666.58;;;8.73;44.54
68380;BME280;57711;53.196;19.638;2023-05-08T05:24:30;101669.56;;;8.80;44.71
68380;BME280;57711;53.196;19.638;2023-05-08T05:26:57;101671.62;;;8.88;44.78
68380;BME280;57711;53.196;19.638;2023-05-08T05:29:24;101671.73;;;8.98;44.77
68380;BME280;57711;53.196;19.638;2023-05-08T05:31:51;101674.53;;;9.09;44.70
68380;BME280;57711;53.196;19.638;2023-05-08T05:34:19;101675.07;;;9.21;44.89
68380;BME280;57711;53.196;19.638;2023-05-08T05:36:46;101677.47;;;9.35;44.99
68380;BME280;57711;53.196;19.638;2023-05-08T05:39:14;101680.00;;;9.49;45.05
68380;BME280;57711;53.196;19.638;2023-05-08T05:41:42;101676.39;;;9.64;45.01
68380;BME280;57711;53.196;19.638;2023-05-08T05:44:10;101675.11;;;9.78;45.12
68380;BME280;57711;53.196;19.638;2023-05-08T05:46:37;101678.14;;;9.96;45.39
68380;BME280;57711;53.196;19.638;2023-05-08T05:49:05;101678.36;;;10.13;45.21
68380;BME280;57711;53.196;19.638;2023-05-08T05:51:32;101672.74;;;10.30;45.34
68380;BME280;57711;53.196;19.638;2023-05-08T05:54:00;101671.10;;;10.47;45.34
68380;BME280;57711;53.196;19.638;2023-05-08T05:56:28;101672.71;;;10.63;45.12
68380;BME280;57711;53.196;19.638;2023-05-08T05:58:55;101668.70;;;10.80;45.17
68380;BME280;57711;53.196;19.638;2023-05-08T06:01:22;101671.84;;;10.98;45.42
68380;BME280;57711;53.196;19.638;2023-05-08T06:03:50;101670.42;;;11.16;45.42
68380;BME280;57711;53.196;19.638;2023-05-08T06:06:18;101670.51;;;11.33;45.27
68380;BME280;57711;53.196;19.638;2023-05-08T06:08:46;101668.30;;;11.49;45.50
68380;BME280;57711;53.196;19.638;2023-05-08T06:11:14;101670.73;;;11.66;45.42
68380;BME280;57711;53.196;19.638;2023-05-08T06:13:41;101668.20;;;11.81;45.31
68380;BME280;57711;53.196;19.638;2023-05-08T06:16:10;101666.64;;;11.95;45.37
68380;BME280;57711;53.196;19.638;2023-05-08T06:18:38;101668.33;;;12.07;45.17
68380;BME280;57711;53.196;19.638;2023-05-08T06:21:05;101668.55;;;12.22;45.05
68380;BME280;57711;53.196;19.638;2023-05-08T06:23:32;101670.69;;;12.37;45.40
68380;BME280;57711;53.196;19.638;2023-05-08T06:25:59;101668.69;;;12.54;45.18
68380;BME280;57711;53.196;19.638;2023-05-08T06:28:26;101668.80;;;12.69;45.15
68380;BME280;57711;53.196;19.638;2023-05-08T06:30:53;101669.66;;;12.82;45.26
68380;BME280;57711;53.196;19.638;2023-05-08T06:33:21;101666.33;;;12.95;45.09
68380;BME280;57711;53.196;19.638;2023-05-08T06:35:51;101665.05;;;13.07;45.01
68380;BME280;57711;53.196;19.638;2023-05-08T06:38:19;101667.08;;;13.15;45.03
68380;BME280;57711;53.196;19.638;2023-05-08T06:40:46;101671.64;;;13.27;45.17
68380;BME280;57711;53.196;19.638;2023-05-08T06:43:15;101673.20;;;13.40;45.15
68380;BME280;57711;53.196;19.638;2023-05-08T06:45:43;101669.51;;;13.52;45.14
68380;BME280;57711;53.196;19.638;2023-05-08T06:48:11;101672.45;;;13.61;45.08
68380;BME280;57711;53.196;19.638;2023-05-08T06:50:39;101667.30;;;13.71;44.98
68380;BME280;57711;53.196;19.638;2023-05-08T06:53:06;101669.14;;;13.82;45.23
68380;BME280;57711;53.196;19.638;2023-05-08T06:55:34;101673.04;;;13.92;45.02
68380;BME280;57711;53.196;19.638;2023-05-08T06:58:01;101669.89;;;14.00;45.01
68380;BME280;57711;53.196;19.638;2023-05-08T07:00:28;101669.86;;;14.09;45.07
68380;BME280;57711;53.196;19.638;2023-05-08T07:02:56;101667.45;;;14.21;45.11
68380;BME280;57711;53.196;19.638;2023-05-08T07:05:23;101676.36;;;14.34;45.02
68380;BME280;57711;53.196;19.638;2023-05-08T07:07:50;101670.66;;;14.44;44.95
68380;BME280;57711;53.196;19.638;2023-05-08T07:10:20;101673.13;;;14.56;45.06
68380;BME280;57711;53.196;19.638;2023-05-08T07:12:48;101670.35;;;14.67;44.91
68380;BME280;57711;53.196;19.638;2023-05-08T07:15:16;101673.75;;;14.79;44.94
68380;BME280;57711;53.196;19.638;2023-05-08T07:17:52;101670.63;;;14.88;44.89
68380;BME280;57711;53.196;19.638;2023-05-08T07:20:19;101672.44;;;14.95;44.86
68380;BME280;57711;53.196;19.638;2023-05-08T07:22:47;101671.27;;;14.95;44.75
68380;BME280;57711;53.196;19.638;2023-05-08T07:25:14;101670.50;;;15.02;44.81
68380;BME280;57711;53.196;19.638;2023-05-08T07:27:42;101672.02;;;15.15;44.94
68380;BME280;57711;53.196;19.638;2023-05-08T07:30:09;101672.58;;;15.25;44.91
68380;BME280;57711;53.196;19.638;2023-05-08T07:32:37;101673.66;;;15.36;44.81
68380;BME280;57711;53.196;19.638;2023-05-08T07:35:07;101670.56;;;15.46;44.82
68380;BME280;57711;53.196;19.638;2023-05-08T07:37:38;101674.46;;;15.60;44.76
68380;BME280;57711;53.196;19.638;2023-05-08T07:40:06;101669.20;;;15.74;44.72
68380;BME280;57711;53.196;19.638;2023-05-08T07:42:43;101670.38;;;15.90;44.76
68380;BME280;57711;53.196;19.638;2023-05-08T07:45:11;101669.91;;;16.03;44.71
68380;BME280;57711;53.196;19.638;2023-05-08T07:47:53;101670.63;;;16.13;44.62
68380;BME280;57711;53.196;19.638;2023-05-08T07:50:21;101667.31;;;16.26;44.43
68380;BME280;57711;53.196;19.638;2023-05-08T07:52:48;101663.74;;;16.35;44.48
68380;BME280;57711;53.196;19.638;2023-05-08T07:55:17;101662.17;;;16.40;44.29
68380;BME280;57711;53.196;19.638;2023-05-08T07:57:44;101661.15;;;16.50;44.24
68380;BME280;57711;53.196;19.638;2023-05-08T08:00:13;101662.23;;;16.60;44.02
68380;BME280;57711;53.196;19.638;2023-05-08T08:02:41;101658.92;;;16.68;44.07
68380;BME280;57711;53.196;19.638;2023-05-08T08:05:09;101656.02;;;16.74;43.80
68380;BME280;57711;53.196;19.638;2023-05-08T08:07:37;101660.95;;;16.73;43.81
68380;BME280;57711;53.196;19.638;2023-05-08T08:10:05;101660.62;;;16.65;43.71
68380;BME280;57711;53.196;19.638;2023-05-08T08:12:32;101657.27;;;16.50;43.59
68380;BME280;57711;53.196;19.638;2023-05-08T08:14:59;101651.57;;;16.31;43.61
68380;BME280;57711;53.196;19.638;2023-05-08T08:17:26;101650.23;;;16.27;43.74
68380;BME280;57711;53.196;19.638;2023-05-08T08:19:55;101652.85;;;16.38;43.85
68380;BME280;57711;53.196;19.638;2023-05-08T08:22:23;101655.42;;;16.54;43.80
68380;BME280;57711;53.196;19.638;2023-05-08T08:24:51;101648.78;;;16.75;43.91
68380;BME280;57711;53.196;19.638;2023-05-08T08:27:21;101650.50;;;16.86;43.43
68380;BME280;57711;53.196;19.638;2023-05-08T08:29:49;101643.98;;;16.79;43.31
68380;BME280;57711;53.196;19.638;2023-05-08T08:32:24;101638.72;;;16.77;43.31
68380;BME280;57711;53.196;19.638;2023-05-08T08:34:51;101639.40;;;16.85;43.32
68380;BME280;57711;53.196;19.638;2023-05-08T08:37:18;101641.88;;;16.82;43.13
68380;BME280;57711;53.196;19.638;2023-05-08T08:39:45;101640.89;;;16.67;42.97
68380;BME280;57711;53.196;19.638;2023-05-08T08:42:14;101641.29;;;16.49;43.02
68380;BME280;57711;53.196;19.638;2023-05-08T08:44:41;101638.57;;;16.29;42.89
68380;BME280;57711;53.196;19.638;2023-05-08T08:47:13;101638.90;;;16.11;42.81
68380;BME280;57711;53.196;19.638;2023-05-08T08:49:46;101639.84;;;15.93;43.01
68380;BME280;57711;53.196;19.638;2023-05-08T08:52:25;101633.64;;;15.82;42.91
68380;BME280;57711;53.196;19.638;2023-05-08T08:54:55;101629.80;;;15.95;42.99
68380;BME280;57711;53.196;19.638;2023-05-08T08:57:26;101634.14;;;16.21;43.09
68380;BME280;57711;53.196;19.638;2023-05-08T08:59:54;101629.13;;;16.48;42.91
68380;BME280;57711;53.196;19.638;2023-05-08T09:02:22;101628.51;;;16.73;42.99
68380;BME280;57711;53.196;19.638;2023-05-08T09:04:50;101623.34;;;17.01;43.00
68380;BME280;57711;53.196;19.638;2023-05-08T09:07:17;101630.95;;;17.24;42.73
68380;BME280;57711;53.196;19.638;2023-05-08T09:09:45;101632.35;;;17.38;42.85
68380;BME280;57711;53.196;19.638;2023-05-08T09:12:12;101625.65;;;17.55;42.42
68380;BME280;57711;53.196;19.638;2023-05-08T09:14:40;101626.42;;;17.73;42.22
68380;BME280;57711;53.196;19.638;2023-05-08T09:17:08;101622.94;;;17.90;42.06
68380;BME280;57711;53.196;19.638;2023-05-08T09:19:35;101620.45;;;18.01;42.04
68380;BME280;57711;53.196;19.638;2023-05-08T09:22:03;101621.05;;;18.19;41.90
68380;BME280;57711;53.196;19.638;2023-05-08T09:27:27;101618.88;;;18.46;41.90
68380;BME280;57711;53.196;19.638;2023-05-08T09:30:14;101617.39;;;18.59;41.96
68380;BME280;57711;53.196;19.638;2023-05-08T09:32:43;101619.30;;;18.76;42.06
68380;BME280;57711;53.196;19.638;2023-05-08T09:35:11;101614.17;;;18.92;41.87
68380;BME280;57711;53.196;19.638;2023-05-08T09:37:40;101606.27;;;19.09;41.75
68380;BME280;57711;53.196;19.638;2023-05-08T09:40:16;101611.18;;;19.14;41.44
68380;BME280;57711;53.196;19.638;2023-05-08T09:42:44;101609.51;;;19.16;41.49
68380;BME280;57711;53.196;19.638;2023-05-08T09:45:25;101607.79;;;19.24;41.30
68380;BME280;57711;53.196;19.638;2023-05-08T09:47:52;101604.08;;;19.31;41.15
68380;BME280;57711;53.196;19.638;2023-05-08T09:50:20;101599.35;;;19.38;41.27
68380;BME280;57711;53.196;19.638;2023-05-08T09:52:48;101597.63;;;19.49;41.25
68380;BME280;57711;53.196;19.638;2023-05-08T09:55:16;101600.60;;;19.59;41.34
68380;BME280;57711;53.196;19.638;2023-05-08T09:57:52;101595.83;;;19.70;41.22
68380;BME280;57711;53.196;19.638;2023-05-08T10:00:19;101598.96;;;19.82;41.10
68380;BME280;57711;53.196;19.638;2023-05-08T10:02:57;101595.52;;;19.91;41.01
68380;BME280;57711;53.196;19.638;2023-05-08T10:05:32;101594.90;;;19.97;40.81
68380;BME280;57711;53.196;19.638;2023-05-08T10:08:20;101591.94;;;19.96;40.56
68380;BME280;57711;53.196;19.638;2023-05-08T10:10:47;101589.94;;;19.89;40.56
68380;BME280;57711;53.196;19.638;2023-05-08T10:13:14;101595.45;;;19.89;40.21
68380;BME280;57711;53.196;19.638;2023-05-08T10:15:42;101592.30;;;19.61;40.12
68380;BME280;57711;53.196;19.638;2023-05-08T10:18:10;101589.85;;;19.22;39.91
68380;BME280;57711;53.196;19.638;2023-05-08T10:20:40;101587.93;;;18.96;40.01
68380;BME280;57711;53.196;19.638;2023-05-08T10:23:10;101583.61;;;18.96;40.04
68380;BME280;57711;53.196;19.638;2023-05-08T10:25:43;101580.53;;;19.07;40.15
68380;BME280;57711;53.196;19.638;2023-05-08T10:28:26;101584.37;;;19.25;40.26
68380;BME280;57711;53.196;19.638;2023-05-08T10:30:58;101579.95;;;19.46;40.36
68380;BME280;57711;53.196;19.638;2023-05-08T10:33:30;101579.98;;;19.63;40.02
68380;BME280;57711;53.196;19.638;2023-05-08T10:35:58;101580.50;;;19.78;40.02
68380;BME280;57711;53.196;19.638;2023-05-08T10:38:26;101575.09;;;19.92;39.92
68380;BME280;57711;53.196;19.638;2023-05-08T10:40:53;101575.06;;;20.06;39.63
68380;BME280;57711;53.196;19.638;2023-05-08T10:43:24;101570.10;;;20.18;39.55
68380;BME280;57711;53.196;19.638;2023-05-08T10:45:52;101570.02;;;20.27;39.52
68380;BME280;57711;53.196;19.638;2023-05-08T10:51:36;101569.77;;;20.51;39.32
68380;BME280;57711;53.196;19.638;2023-05-08T10:57:06;101564.84;;;20.54;38.96
68380;BME280;57711;53.196;19.638;2023-05-08T10:59:34;101563.14;;;20.61;39.15
68380;BME280;57711;53.196;19.638;2023-05-08T11:02:04;101558.36;;;20.64;38.97
68380;BME280;57711;53.196;19.638;2023-05-08T11:04:33;101557.46;;;20.67;38.75
68380;BME280;57711;53.196;19.638;2023-05-08T11:07:00;101557.65;;;20.67;38.76
68380;BME280;57711;53.196;19.638;2023-05-08T11:09:43;101554.43;;;20.66;38.68
68380;BME280;57711;53.196;19.638;2023-05-08T11:12:24;101552.40;;;20.78;38.66
68380;BME280;57711;53.196;19.638;2023-05-08T11:17:24;101545.44;;;20.85;38.41
68380;BME280;57711;53.196;19.638;2023-05-08T11:19:54;101542.30;;;20.88;38.63
68380;BME280;57711;53.196;19.638;2023-05-08T11:22:24;101539.27;;;20.90;38.30
68380;BME280;57711;53.196;19.638;2023-05-08T11:25:07;101535.58;;;20.89;38.28
68380;BME280;57711;53.196;19.638;2023-05-08T11:38:40;101541.52;;;20.79;37.72
68380;BME280;57711;53.196;19.638;2023-05-08T11:41:19;101537.52;;;20.48;37.69
68380;BME280;57711;53.196;19.638;2023-05-08T11:46:39;101535.17;;;19.89;37.60
68380;BME280;57711;53.196;19.638;2023-05-08T11:49:11;101533.25;;;19.73;37.84
68380;BME280;57711;53.196;19.638;2023-05-08T11:51:40;101534.52;;;19.58;37.61
68380;BME280;57711;53.196;19.638;2023-05-08T11:54:14;101528.45;;;19.44;37.83
68380;BME280;57711;53.196;19.638;2023-05-08T11:56:43;101530.87;;;19.51;37.78
68380;BME280;57711;53.196;19.638;2023-05-08T11:59:14;101531.17;;;19.65;37.71
68380;BME280;57711;53.196;19.638;2023-05-08T12:01:41;101533.13;;;19.81;37.57
68380;BME280;57711;53.196;19.638;2023-05-08T12:04:14;101530.38;;;19.91;37.46
68380;BME280;57711;53.196;19.638;2023-05-08T12:06:42;101527.66;;;19.92;37.39
68380;BME280;57711;53.196;19.638;2023-05-08T12:09:12;101522.60;;;19.93;37.36
68380;BME280;57711;53.196;19.638;2023-05-08T12:11:41;101528.35;;;19.84;37.15
68380;BME280;57711;53.196;19.638;2023-05-08T12:14:11;101523.41;;;19.69;37.01
68380;BME280;57711;53.196;19.638;2023-05-08T12:16:39;101526.15;;;19.48;37.05
68380;BME280;57711;53.196;19.638;2023-05-08T12:19:11;101524.86;;;19.33;36.97
68380;BME280;57711;53.196;19.638;2023-05-08T12:21:46;101521.81;;;19.29;36.98
68380;BME280;57711;53.196;19.638;2023-05-08T12:24:15;101519.59;;;19.34;36.90
68380;BME280;57711;53.196;19.638;2023-05-08T12:26:52;101516.20;;;19.45;36.90
68380;BME280;57711;53.196;19.638;2023-05-08T12:29:20;101517.20;;;19.62;36.90
68380;BME280;57711;53.196;19.638;2023-05-08T12:31:47;101515.45;;;19.75;36.86
68380;BME280;57711;53.196;19.638;2023-05-08T12:34:14;101516.95;;;19.81;36.63
68380;BME280;57711;53.196;19.638;2023-05-08T12:36:42;101515.80;;;19.85;36.85
68380;BME280;57711;53.196;19.638;2023-05-08T12:39:14;101518.42;;;19.87;36.68
68380;BME280;57711;53.196;19.638;2023-05-08T12:41:48;101519.45;;;19.70;36.51
68380;BME280;57711;53.196;19.638;2023-05-08T12:44:22;101513.13;;;19.45;36.39
68380;BME280;57711;53.196;19.638;2023-05-08T12:46:51;101507.69;;;19.18;36.44
68380;BME280;57711;53.196;19.638;2023-05-08T12:49:25;101509.98;;;18.99;36.34
68380;BME280;57711;53.196;19.638;2023-05-08T12:52:02;101505.31;;;18.89;36.36
68380;BME280;57711;53.196;19.638;2023-05-08T12:54:34;101501.27;;;18.91;36.25
68380;BME280;57711;53.196;19.638;2023-05-08T12:57:15;101499.30;;;18.97;36.25
68380;BME280;57711;53.196;19.638;2023-05-08T12:59:44;101501.94;;;19.09;36.16
68380;BME280;57711;53.196;19.638;2023-05-08T13:02:17;101499.16;;;19.16;36.25
68380;BME280;57711;53.196;19.638;2023-05-08T13:04:44;101494.47;;;19.26;36.12
68380;BME280;57711;53.196;19.638;2023-05-08T13:07:12;101492.46;;;19.38;36.14
68380;BME280;57711;53.196;19.638;2023-05-08T13:09:54;101490.83;;;19.51;35.99
68380;BME280;57711;53.196;19.638;2023-05-08T13:12:21;101491.97;;;19.51;35.89
68380;BME280;57711;53.196;19.638;2023-05-08T13:14:49;101489.02;;;19.39;35.83
68380;BME280;57711;53.196;19.638;2023-05-08T13:17:17;101488.76;;;19.19;35.65
68380;BME280;57711;53.196;19.638;2023-05-08T13:19:44;101485.15;;;18.96;35.58
68380;BME280;57711;53.196;19.638;2023-05-08T13:22:11;101488.55;;;18.79;35.45
68380;BME280;57711;53.196;19.638;2023-05-08T13:24:38;101485.34;;;18.73;35.45
68380;BME280;57711;53.196;19.638;2023-05-08T13:27:05;101480.69;;;18.72;35.69
68380;BME280;57711;53.196;19.638;2023-05-08T13:29:33;101479.40;;;18.79;35.67
68380;BME280;57711;53.196;19.638;2023-05-08T13:32:00;101477.67;;;18.87;35.58
68380;BME280;57711;53.196;19.638;2023-05-08T13:34:27;101472.41;;;18.92;35.64
68380;BME280;57711;53.196;19.638;2023-05-08T13:36:55;101471.06;;;18.96;35.64
68380;BME280;57711;53.196;19.638;2023-05-08T13:39:22;101469.70;;;19.02;35.56
68380;BME280;57711;53.196;19.638;2023-05-08T13:41:49;101469.60;;;19.10;35.61
68380;BME280;57711;53.196;19.638;2023-05-08T13:44:16;101470.33;;;19.11;35.44
68380;BME280;57711;53.196;19.638;2023-05-08T13:46:43;101467.39;;;19.10;35.40